createdAt,value
2018-11-22T12:16:48.283Z,1.35
2018-11-22T12:19:16.770Z,1.40
2018-11-22T12:21:45.210Z,1.37
2018-11-22T12:24:13.703Z,1.35
2018-11-22T12:26:42.151Z,1.34
2018-11-22T12:29:10.621Z,1.37
2018-11-22T12:31:39.064Z,1.33
2018-11-22T12:34:12.821Z,1.32
2018-11-22T12:36:46.508Z,1.30
2018-11-22T12:39:16.039Z,1.26
2018-11-22T12:41:44.703Z,1.29
2018-11-22T12:44:13.166Z,1.34
2018-11-22T12:46:41.621Z,1.31
2018-11-22T12:49:10.072Z,1.29
2018-11-22T12:51:38.535Z,1.29
2018-11-22T12:54:06.989Z,1.24
2018-11-22T12:56:35.464Z,1.22
2018-11-22T12:59:03.915Z,1.22
2018-11-22T13:01:32.405Z,1.22
2018-11-22T13:04:00.860Z,1.22
2018-11-22T13:06:29.332Z,1.24
2018-11-22T13:08:57.769Z,1.26
2018-11-22T13:11:26.227Z,1.28
2018-11-22T13:13:54.672Z,1.29
2018-11-22T13:16:23.138Z,1.28
2018-11-22T13:18:51.563Z,1.23
2018-11-22T13:21:20.031Z,1.21
2018-11-22T13:23:48.489Z,1.23
2018-11-22T13:26:16.944Z,1.18
2018-11-22T13:28:45.450Z,1.17
2018-11-22T13:31:13.895Z,1.15
2018-11-22T13:33:42.315Z,1.14
2018-11-22T13:36:10.792Z,1.07
2018-11-22T13:38:39.231Z,1.06
2018-11-22T13:41:07.702Z,1.06
2018-11-22T13:43:36.157Z,1.04
2018-11-22T13:46:05.409Z,1.07
2018-11-22T13:48:33.131Z,1.07
2018-11-22T13:51:01.556Z,1.07
2018-11-22T13:53:30.013Z,1.06
2018-11-22T13:55:58.459Z,1.07
2018-11-22T13:58:26.921Z,1.07
2018-11-22T14:01:00.472Z,1.07
2018-11-22T14:03:28.957Z,1.08
2018-11-22T14:05:57.428Z,1.08
2018-11-22T14:08:25.887Z,1.04
2018-11-22T14:10:58.416Z,1.04
2018-11-22T14:13:22.807Z,1.04
2018-11-22T14:15:51.247Z,1.03
2018-11-22T14:18:19.711Z,1.02
2018-11-22T14:20:48.146Z,0.97
2018-11-22T14:23:16.640Z,0.98
2018-11-22T14:25:49.006Z,0.97
2018-11-22T14:28:13.555Z,0.97
2018-11-22T14:30:42.012Z,0.95
2018-11-22T14:33:10.586Z,0.95
2018-11-22T14:35:39.143Z,0.92
2018-11-22T14:38:07.610Z,0.88
2018-11-22T14:40:36.066Z,0.86
2018-11-22T14:43:04.509Z,0.84
2018-11-22T14:45:33.143Z,0.85
2018-11-22T14:48:02.651Z,0.85
2018-11-22T14:50:33.868Z,0.84
2018-11-22T14:53:09.758Z,0.83
2018-11-22T14:55:38.621Z,0.83
2018-11-22T14:58:07.493Z,0.82
2018-11-22T15:00:35.996Z,0.84
2018-11-22T15:03:04.478Z,0.82
2018-11-22T15:05:32.935Z,0.77
2018-11-22T15:08:01.427Z,0.75
2018-11-22T15:10:29.887Z,0.72
2018-11-22T15:12:58.345Z,0.72
2018-11-22T15:15:27.662Z,0.70
2018-11-22T15:17:56.098Z,0.68
2018-11-22T15:20:24.643Z,0.68
2018-11-22T15:22:53.863Z,0.65
2018-11-22T15:25:23.774Z,0.63
2018-11-22T15:27:52.299Z,0.62
2018-11-22T15:30:22.290Z,0.62
2018-11-22T15:32:50.907Z,0.60
2018-11-22T15:35:20.747Z,0.59
2018-11-22T15:37:49.570Z,0.57
2018-11-22T15:40:19.267Z,0.57
2018-11-22T15:42:49.239Z,0.59
2018-11-22T15:45:19.052Z,0.56
2018-11-22T15:47:47.757Z,0.54
2018-11-22T15:50:18.393Z,0.52
2018-11-22T15:52:47.137Z,0.52
2018-11-22T15:55:20.886Z,0.51
2018-11-22T15:57:46.379Z,0.51
2018-11-22T16:00:17.653Z,0.48
2018-11-22T16:02:46.752Z,0.48
2018-11-22T16:05:15.727Z,0.47
2018-11-22T16:07:44.316Z,0.46
2018-11-22T16:10:15.552Z,0.46
2018-11-22T16:12:44.299Z,0.47
2018-11-22T16:15:19.453Z,0.46
2018-11-22T16:17:48.005Z,0.44
2018-11-22T16:20:16.461Z,0.45
2018-11-22T16:22:45.078Z,0.44
2018-11-22T16:25:13.984Z,0.44
2018-11-22T16:27:43.290Z,0.45
2018-11-22T16:30:28.480Z,0.45
2018-11-22T16:32:56.984Z,0.45
2018-11-22T16:35:28.772Z,0.45
2018-11-22T16:37:54.947Z,0.45
2018-11-22T16:40:24.704Z,0.44
2018-11-22T16:42:54.177Z,0.44
2018-11-22T16:45:37.985Z,0.42
2018-11-22T16:48:08.649Z,0.43
2018-11-22T16:50:38.479Z,0.43
2018-11-22T16:53:07.101Z,0.42
2018-11-22T16:55:35.563Z,0.42
2018-11-22T16:58:04.491Z,0.41
2018-11-22T17:00:35.252Z,0.40
2018-11-22T17:03:05.979Z,0.39
2018-11-22T17:05:35.026Z,0.40
2018-11-22T17:08:04.305Z,0.38
2018-11-22T17:10:33.304Z,0.36
2018-11-22T17:13:02.760Z,0.35
2018-11-22T17:15:32.656Z,0.34
2018-11-22T17:18:01.514Z,0.34
2018-11-22T17:20:30.940Z,0.34
2018-11-22T17:22:59.599Z,0.35
2018-11-22T17:25:30.195Z,0.35
2018-11-22T17:28:00.922Z,0.33
2018-11-22T17:30:34.776Z,0.33
2018-11-22T17:33:03.232Z,0.33
2018-11-22T17:35:32.280Z,0.33
2018-11-22T17:38:01.989Z,0.32
2018-11-22T17:40:32.732Z,0.30
2018-11-22T17:43:01.182Z,0.29
2018-11-22T17:45:30.990Z,0.30
2018-11-22T17:47:59.455Z,0.33
2018-11-22T17:50:29.600Z,0.31
2018-11-22T17:52:58.049Z,0.31
2018-11-22T17:55:27.642Z,0.34
2018-11-22T17:57:56.107Z,0.34
2018-11-22T18:00:25.992Z,0.32
2018-11-22T18:02:55.686Z,0.32
2018-11-22T18:05:27.384Z,0.31
2018-11-22T18:07:52.689Z,0.34
2018-11-22T18:10:23.662Z,0.33
2018-11-22T18:12:53.203Z,0.33
2018-11-22T18:15:22.387Z,0.33
2018-11-22T18:17:51.494Z,0.33
2018-11-22T18:20:22.671Z,0.34
2018-11-22T18:22:52.052Z,0.35
2018-11-22T18:25:21.811Z,0.35
2018-11-22T18:27:50.358Z,0.34
2018-11-22T18:30:22.138Z,0.36
2018-11-22T18:32:52.011Z,0.36
2018-11-22T18:35:20.471Z,0.35
2018-11-22T18:37:48.938Z,0.36
2018-11-22T18:40:26.083Z,0.36
2018-11-22T18:42:55.578Z,0.38
2018-11-22T18:45:29.261Z,0.38
2018-11-22T18:47:57.724Z,0.38
2018-11-22T18:50:27.362Z,0.40
2018-11-22T18:52:55.828Z,0.40
2018-11-22T18:55:24.283Z,0.42
2018-11-22T18:57:52.763Z,0.42
2018-11-22T19:00:23.620Z,0.42
2018-11-22T19:02:52.952Z,0.44
2018-11-22T19:05:21.537Z,0.43
2018-11-22T19:07:50.756Z,0.43
2018-11-22T19:10:21.816Z,0.43
2018-11-22T19:12:51.363Z,0.43
2018-11-22T19:15:21.137Z,0.43
2018-11-22T19:17:49.985Z,0.45
2018-11-22T19:20:22.874Z,0.44
2018-11-22T19:22:52.119Z,0.45
2018-11-22T19:25:21.244Z,0.46
2018-11-22T19:27:49.883Z,0.47
2018-11-22T19:30:26.194Z,0.46
2018-11-22T19:32:55.831Z,0.46
2018-11-22T19:35:25.852Z,0.48
2018-11-22T19:37:54.336Z,0.47
2018-11-22T19:40:30.632Z,0.48
2018-11-22T19:43:01.427Z,0.48
2018-11-22T19:45:31.186Z,0.50
2018-11-22T19:47:59.687Z,0.50
2018-11-22T19:50:28.913Z,0.51
2018-11-22T19:52:58.477Z,0.50
2018-11-22T19:55:28.257Z,0.49
2018-11-22T19:57:59.052Z,0.49
2018-11-22T20:00:28.243Z,0.49
2018-11-22T20:02:57.830Z,0.48
2018-11-22T20:05:27.280Z,0.48
2018-11-22T20:07:58.069Z,0.46
2018-11-22T20:10:28.060Z,0.47
2018-11-22T20:12:56.532Z,0.48
2018-11-22T20:15:25.055Z,0.48
2018-11-22T20:17:53.899Z,0.48
2018-11-22T20:20:23.102Z,0.47
2018-11-22T20:22:51.937Z,0.47
2018-11-22T20:25:20.442Z,0.46
2018-11-22T20:27:49.629Z,0.46
2018-11-22T20:30:34.229Z,0.47
2018-11-22T20:33:02.956Z,0.46
2018-11-22T20:35:32.088Z,0.44
2018-11-22T20:38:00.590Z,0.46
2018-11-22T20:40:29.517Z,0.45
2018-11-22T20:42:58.431Z,0.47
2018-11-22T20:45:27.545Z,0.46
2018-11-22T20:47:58.479Z,0.46
2018-11-22T20:50:27.726Z,0.46
2018-11-22T20:52:56.187Z,0.46
2018-11-22T20:55:26.075Z,0.46
2018-11-22T20:57:55.668Z,0.45
2018-11-22T21:00:25.528Z,0.45
2018-11-22T21:02:53.975Z,0.45
2018-11-22T21:05:23.151Z,0.45
2018-11-22T21:07:51.603Z,0.45
2018-11-22T21:10:21.477Z,0.44
2018-11-22T21:12:49.934Z,0.44
2018-11-22T21:15:20.483Z,0.43
2018-11-22T21:17:50.018Z,0.43
2018-11-22T21:20:19.861Z,0.42
2018-11-22T21:22:48.339Z,0.43
2018-11-22T21:25:18.119Z,0.42
2018-11-22T21:27:46.603Z,0.41
2018-11-22T21:30:17.662Z,0.42
2018-11-22T21:32:47.043Z,0.43
2018-11-22T21:35:16.202Z,0.41
2018-11-22T21:37:45.079Z,0.42
2018-11-22T21:40:14.720Z,0.41
2018-11-22T21:42:42.816Z,0.41
2018-11-22T21:45:13.871Z,0.41
2018-11-22T21:47:42.676Z,0.41
2018-11-22T21:50:12.503Z,0.41
2018-11-22T21:52:41.020Z,0.41
2018-11-22T21:55:12.052Z,0.42
2018-11-22T21:57:41.385Z,0.40
2018-11-22T22:00:17.440Z,0.40
2018-11-22T22:02:52.483Z,0.41
2018-11-22T22:05:15.481Z,0.40
2018-11-22T22:07:43.960Z,0.42
2018-11-22T22:10:12.509Z,0.40
2018-11-22T22:12:41.722Z,0.39
2018-11-22T22:15:13.455Z,0.40
2018-11-22T22:17:42.793Z,0.40
2018-11-22T22:20:14.246Z,0.40
2018-11-22T22:22:42.972Z,0.41
2018-11-22T22:25:13.734Z,0.41
2018-11-22T22:27:42.526Z,0.40
2018-11-22T22:30:14.573Z,0.40
2018-11-22T22:32:43.712Z,0.41
2018-11-22T22:35:12.200Z,0.40
2018-11-22T22:37:40.726Z,0.39
2018-11-22T22:40:12.790Z,0.40
2018-11-22T22:42:42.315Z,0.40
2018-11-22T22:45:11.215Z,0.38
2018-11-22T22:47:39.697Z,0.36
2018-11-22T22:50:10.689Z,0.36
2018-11-22T22:52:39.175Z,0.36
2018-11-22T22:55:08.200Z,0.36
2018-11-22T22:57:36.678Z,0.36
2018-11-22T23:00:08.044Z,0.35
2018-11-22T23:02:36.533Z,0.35
2018-11-22T23:05:05.884Z,0.34
2018-11-22T23:07:34.364Z,0.33
2018-11-22T23:10:02.826Z,0.32
2018-11-22T23:12:31.356Z,0.33
2018-11-22T23:14:59.811Z,0.33
2018-11-22T23:17:28.289Z,0.32
2018-11-22T23:19:56.768Z,0.33
2018-11-22T23:22:25.239Z,0.30
2018-11-22T23:24:53.712Z,0.32
2018-11-22T23:27:22.224Z,0.33
2018-11-22T23:29:50.707Z,0.32
2018-11-22T23:32:19.178Z,0.30
2018-11-22T23:34:47.640Z,0.29
2018-11-22T23:37:16.114Z,0.29
2018-11-22T23:39:44.570Z,0.28
2018-11-22T23:42:13.053Z,0.28
2018-11-22T23:44:41.498Z,0.28
2018-11-22T23:47:09.963Z,0.27
2018-11-22T23:49:38.413Z,0.29
2018-11-22T23:52:06.896Z,0.28
2018-11-22T23:54:35.339Z,0.28
2018-11-22T23:57:03.810Z,0.28
2018-11-22T23:59:32.261Z,0.27
